KPIB/PIB METAR and TAF weather

Enter ICAO airport designator
Station Type Date Time Source
KPIB METAR 2019/02/18 03:56 UTC NOAA

KPIB 180356Z AUTO 35006KT 10SM OVC033 13/11 A2999 RMK AO2 SLP153 T01280106 PNO $


Station Type Date Time Source
KPIB Decoded METAR 2019/02/18 03:56 UTC NOAA

Hattiesburg/Laurel, Hattiesburg-Laurel Regional Airport, MS, United States (KPIB) 31-28N 089-20W
Feb 17, 2019 - 10:56 PM EST / 2019.02.18 0356 UTC
Wind: from the N (350 degrees) at 7 MPH (6 KT):0
Visibility: 10 mile(s):0
Sky conditions: overcast
Temperature: 55.0 F (12.8 C)
Dew Point: 51.1 F (10.6 C)
Relative Humidity: 86%
Pressure (altimeter): 29.99 in. Hg (1015 hPa)
ob: KPIB 180356Z AUTO 35006KT 10SM OVC033 13/11 A2999 RMK AO2 SLP153 T01280106 PNO
cycle: 4

Station Type Date Time Source
KPIB TAF 2019/02/18 04:51 UTC NOAA

TAF
AMD KPIB 180349Z 1804/1824 36006KT P6SM OVC030
FM180600 36011KT P6SM -RA BKN025 BKN090
FM180800 36011KT P6SM SCT100 BKN250
FM181600 03014G20KT P6SM BKN250


Example: see airport list